Time,TemperatureF,DewpointF,PressureIn,WindDirection,WindDirectionDegrees,WindSpeedMPH,WindSpeedGustMPH,Humidity,HourlyPrecipIn,Conditions,Clouds,dailyrainin,SolarRadiationWatts/m^2,SoftwareType,DateUTC
2013-06-23 00:01:00,76.6,76.6,30.06,ESE,104,0.0,0.0,100,0.03,,,0.63,0.0,meteohub,2013-06-23 04:01:00,
2013-06-23 00:03:00,76.6,76.6,30.06,SE,126,0.0,0.0,100,0.03,,,0.63,0.0,meteohub,2013-06-23 04:03:00,
2013-06-23 00:08:00,76.6,76.6,30.06,SE,126,0.0,7.0,100,0.02,,,0.00,0.0,meteohub,2013-06-23 04:08:00,
2013-06-23 00:13:00,76.5,76.5,30.06,SSE,147,0.0,7.0,100,0.02,,,0.00,0.0,meteohub,2013-06-23 04:13:00,
2013-06-23 00:18:00,75.9,75.9,30.06,SE,130,0.0,10.0,100,0.03,,,0.00,0.0,meteohub,2013-06-23 04:18:00,
2013-06-23 00:23:00,75.9,75.9,30.06,SE,128,0.0,10.0,100,0.03,,,0.01,0.0,meteohub,2013-06-23 04:23:00,
2013-06-23 00:28:00,75.9,75.9,30.05,SE,126,0.0,10.0,100,0.03,,,0.01,0.0,meteohub,2013-06-23 04:28:00,
2013-06-23 00:33:00,75.9,75.9,30.05,SE,127,0.0,9.0,100,0.03,,,0.01,0.0,meteohub,2013-06-23 04:33:00,
2013-06-23 00:38:00,76.1,76.1,30.05,SE,126,0.0,0.0,100,0.03,,,0.01,0.0,meteohub,2013-06-23 04:38:00,
2013-06-23 00:43:00,76.1,76.1,30.04,SE,128,0.0,0.0,100,0.03,,,0.01,0.0,meteohub,2013-06-23 04:43:00,
2013-06-23 00:48:00,76.1,76.1,30.04,SE,127,0.0,0.0,100,0.03,,,0.01,0.0,meteohub,2013-06-23 04:48:00,
2013-06-23 00:53:00,76.1,76.1,30.04,SE,127,0.0,0.0,100,0.03,,,0.01,0.0,meteohub,2013-06-23 04:53:00,
2013-06-23 00:58:00,76.1,76.1,30.04,SE,126,0.0,0.0,100,0.02,,,0.01,0.0,meteohub,2013-06-23 04:58:00,
2013-06-23 01:03:00,75.9,75.9,30.04,SE,128,0.0,0.0,100,0.01,,,0.01,0.0,meteohub,2013-06-23 05:03:00,
2013-06-23 01:09:00,75.9,75.9,30.04,SE,128,0.0,0.0,100,0.01,,,0.01,0.0,meteohub,2013-06-23 05:09:00,
2013-06-23 01:14:00,75.9,75.9,30.04,SE,127,0.0,0.0,100,0.01,,,0.01,0.0,meteohub,2013-06-23 05:14:00,
2013-06-23 01:19:00,75.9,75.9,30.04,SE,127,0.0,0.0,100,0.00,,,0.01,0.0,meteohub,2013-06-23 05:19:00,
2013-06-23 01:24:00,75.9,75.9,30.04,SE,127,0.0,0.0,100,0.00,,,0.01,0.0,meteohub,2013-06-23 05:24:00,
2013-06-23 01:29:00,75.9,75.9,30.04,ESE,123,0.0,0.0,100,0.00,,,0.01,0.0,meteohub,2013-06-23 05:29:00,
2013-06-23 01:34:00,75.7,75.7,30.04,SE,127,0.0,0.0,100,0.00,,,0.01,0.0,meteohub,2013-06-23 05:34:00,
2013-06-23 01:39:00,75.7,75.7,30.04,SE,127,0.0,0.0,100,0.00,,,0.01,0.0,meteohub,2013-06-23 05:39:00,
2013-06-23 01:44:00,75.7,75.7,30.03,SE,126,0.0,0.0,100,0.00,,,0.01,0.0,meteohub,2013-06-23 05:44:00,
2013-06-23 01:49:00,75.7,75.7,30.03,SE,127,0.0,0.0,100,0.00,,,0.01,0.0,meteohub,2013-06-23 05:49:00,
2013-06-23 01:54:00,75.7,75.7,30.03,SE,126,0.0,0.0,100,0.00,,,0.01,0.0,meteohub,2013-06-23 05:54:00,
2013-06-23 01:59:00,75.7,75.7,30.03,SE,128,0.0,0.0,100,0.00,,,0.01,0.0,meteohub,2013-06-23 05:59:00,
2013-06-23 02:01:00,75.7,75.7,30.03,SE,127,0.0,0.0,100,0.00,,,0.01,0.0,meteohub,2013-06-23 06:01:00,
2013-06-23 02:06:00,75.7,75.7,30.03,SE,127,0.0,0.0,100,0.00,,,0.01,0.0,meteohub,2013-06-23 06:06:00,
2013-06-23 02:11:00,75.9,75.9,30.03,SE,126,0.0,0.0,100,0.00,,,0.01,0.0,meteohub,2013-06-23 06:11:00,
2013-06-23 02:16:00,75.7,75.7,30.03,SE,127,0.0,0.0,100,0.00,,,0.01,0.0,meteohub,2013-06-23 06:16:00,
2013-06-23 02:21:00,75.9,75.9,30.03,SE,126,0.0,0.0,100,0.00,,,0.01,0.0,meteohub,2013-06-23 06:21:00,
2013-06-23 02:26:00,75.7,75.7,30.03,SE,127,0.0,0.0,100,0.00,,,0.01,0.0,meteohub,2013-06-23 06:26:00,
2013-06-23 02:31:00,75.7,75.7,30.03,SE,128,0.0,0.0,100,0.00,,,0.01,0.0,meteohub,2013-06-23 06:31:00,
2013-06-23 02:36:00,75.9,75.9,30.03,SE,126,0.0,0.0,100,0.00,,,0.01,0.0,meteohub,2013-06-23 06:36:00,
2013-06-23 02:41:00,75.7,75.7,30.03,SE,127,0.0,0.0,100,0.00,,,0.01,0.0,meteohub,2013-06-23 06:41:00,
2013-06-23 02:46:00,75.7,75.7,30.03,SE,127,0.0,0.0,100,0.00,,,0.01,0.0,meteohub,2013-06-23 06:46:00,
2013-06-23 02:51:00,75.6,75.6,30.03,SE,126,0.0,0.0,100,0.00,,,0.01,0.0,meteohub,2013-06-23 06:51:00,
2013-06-23 02:56:00,75.6,75.6,30.03,SE,127,0.0,0.0,100,0.00,,,0.01,0.0,meteohub,2013-06-23 06:56:00,
2013-06-23 03:01:00,75.7,75.7,30.03,SE,127,0.0,0.0,100,0.00,,,0.01,0.0,meteohub,2013-06-23 07:01:00,
2013-06-23 03:06:00,75.7,75.7,30.03,SE,127,0.0,0.0,100,0.00,,,0.01,0.0,meteohub,2013-06-23 07:06:00,
2013-06-23 03:11:00,75.7,75.7,30.03,SE,128,0.0,0.0,100,0.00,,,0.01,0.0,meteohub,2013-06-23 07:11:00,
2013-06-23 03:16:00,75.7,75.7,30.03,SE,127,0.0,0.0,100,0.00,,,0.01,0.0,meteohub,2013-06-23 07:16:00,
2013-06-23 03:21:00,75.7,75.7,30.03,SE,127,0.0,0.0,100,0.00,,,0.01,0.0,meteohub,2013-06-23 07:21:00,
2013-06-23 03:26:00,75.7,75.7,30.03,SE,126,0.0,0.0,100,0.00,,,0.01,0.0,meteohub,2013-06-23 07:26:00,
2013-06-23 03:31:00,75.7,75.7,30.03,SE,126,0.0,0.0,100,0.00,,,0.01,0.0,meteohub,2013-06-23 07:31:00,
2013-06-23 03:36:00,75.7,75.7,30.03,SE,127,0.0,0.0,100,0.00,,,0.01,0.0,meteohub,2013-06-23 07:36:00,
2013-06-23 03:41:00,75.7,75.7,30.03,SE,126,0.0,0.0,100,0.00,,,0.01,0.0,meteohub,2013-06-23 07:41:00,
2013-06-23 03:46:00,75.7,75.7,30.04,SE,126,0.0,0.0,100,0.00,,,0.01,0.0,meteohub,2013-06-23 07:46:00,
2013-06-23 03:51:00,75.7,75.7,30.04,SE,127,0.0,0.0,100,0.00,,,0.01,0.0,meteohub,2013-06-23 07:51:00,
2013-06-23 03:57:00,75.6,75.6,30.04,SE,127,0.0,0.0,100,0.00,,,0.01,0.0,meteohub,2013-06-23 07:57:00,
2013-06-23 04:02:00,75.7,75.7,30.04,SE,127,0.0,0.0,100,0.00,,,0.01,0.0,meteohub,2013-06-23 08:02:00,
2013-06-23 04:07:00,75.7,75.7,30.04,SE,127,0.0,0.0,100,0.00,,,0.01,0.0,meteohub,2013-06-23 08:07:00,
2013-06-23 04:12:00,75.6,75.6,30.04,SE,127,0.0,0.0,100,0.00,,,0.01,0.0,meteohub,2013-06-23 08:12:00,
2013-06-23 04:17:00,75.6,75.6,30.04,SE,127,0.0,0.0,100,0.00,,,0.01,0.0,meteohub,2013-06-23 08:17:00,
2013-06-23 04:22:00,75.6,75.6,30.04,SE,126,0.0,0.0,100,0.00,,,0.01,0.0,meteohub,2013-06-23 08:22:00,
2013-06-23 04:27:00,75.6,75.6,30.04,SE,127,0.0,0.0,100,0.00,,,0.01,0.0,meteohub,2013-06-23 08:27:00,
2013-06-23 04:32:00,75.7,75.7,30.04,SE,127,0.0,0.0,100,0.00,,,0.01,0.0,meteohub,2013-06-23 08:32:00,
2013-06-23 04:37:00,75.6,75.6,30.04,SE,128,0.0,0.0,100,0.00,,,0.01,0.0,meteohub,2013-06-23 08:37:00,
2013-06-23 04:42:00,75.6,75.6,30.04,SE,127,0.0,0.0,100,0.00,,,0.01,0.0,meteohub,2013-06-23 08:42:00,
2013-06-23 04:47:00,75.6,75.6,30.04,SE,126,0.0,0.0,100,0.00,,,0.01,0.0,meteohub,2013-06-23 08:47:00,
2013-06-23 04:52:00,75.6,75.6,30.04,SE,126,0.0,0.0,100,0.00,,,0.01,0.0,meteohub,2013-06-23 08:52:00,
2013-06-23 04:57:00,75.4,75.4,30.04,SE,126,0.0,0.0,100,0.00,,,0.01,0.0,meteohub,2013-06-23 08:57:00,
2013-06-23 05:02:00,75.4,75.4,30.04,SE,127,0.0,0.0,100,0.00,,,0.01,0.0,meteohub,2013-06-23 09:02:00,
2013-06-23 05:07:00,75.4,75.4,30.04,SE,127,0.0,0.0,100,0.00,,,0.01,0.0,meteohub,2013-06-23 09:07:00,
2013-06-23 05:12:00,75.4,75.4,30.04,SE,126,0.0,0.0,100,0.00,,,0.01,0.0,meteohub,2013-06-23 09:12:00,
2013-06-23 05:17:00,75.6,75.6,30.04,SE,130,0.0,0.0,100,0.01,,,0.02,0.0,meteohub,2013-06-23 09:17:00,
2013-06-23 05:22:00,75.6,75.6,30.04,SE,127,0.0,0.0,100,0.01,,,0.02,0.0,meteohub,2013-06-23 09:22:00,
2013-06-23 05:28:00,75.6,75.6,30.04,East,96,0.0,6.0,100,0.02,,,0.03,0.0,meteohub,2013-06-23 09:28:00,
2013-06-23 05:33:00,75.4,75.4,30.04,East,93,0.0,6.0,100,0.02,,,0.03,0.0,meteohub,2013-06-23 09:33:00,
2013-06-23 05:38:00,75.0,75.0,30.04,East,97,0.0,6.0,100,0.03,,,0.04,0.0,meteohub,2013-06-23 09:38:00,
2013-06-23 05:43:00,74.8,74.8,30.04,East,92,0.0,0.0,100,0.03,,,0.04,0.0,meteohub,2013-06-23 09:43:00,
2013-06-23 05:48:00,74.8,74.8,30.04,East,96,0.0,0.0,100,0.03,,,0.04,0.0,meteohub,2013-06-23 09:48:00,
2013-06-23 05:53:00,74.8,74.8,30.04,East,96,0.0,0.0,100,0.03,,,0.04,0.0,meteohub,2013-06-23 09:53:00,
2013-06-23 05:58:00,74.8,74.8,30.05,East,96,0.0,0.0,100,0.03,,,0.04,7.0,meteohub,2013-06-23 09:58:00,
2013-06-23 06:03:00,75.0,75.0,30.05,East,96,0.0,0.0,100,0.03,,,0.04,14.0,meteohub,2013-06-23 10:03:00,
2013-06-23 06:08:00,75.4,75.4,30.05,East,89,0.0,0.0,100,0.03,,,0.04,30.0,meteohub,2013-06-23 10:08:00,
2013-06-23 06:13:00,75.4,75.4,30.06,East,96,0.0,0.0,100,0.03,,,0.04,40.0,meteohub,2013-06-23 10:13:00,
2013-06-23 06:18:00,75.4,75.4,30.06,East,96,0.0,0.0,100,0.02,,,0.04,77.0,meteohub,2013-06-23 10:18:00,
2013-06-23 06:23:00,75.4,75.4,30.06,East,96,0.0,0.0,100,0.02,,,0.04,53.0,meteohub,2013-06-23 10:23:00,
2013-06-23 06:28:00,75.7,75.7,30.06,East,96,0.0,0.0,100,0.01,,,0.04,53.0,meteohub,2013-06-23 10:28:00,
2013-06-23 06:33:00,75.7,75.7,30.06,East,96,0.0,0.0,100,0.01,,,0.04,63.0,meteohub,2013-06-23 10:33:00,
2013-06-23 06:38:00,75.9,75.9,30.06,East,96,0.0,0.0,100,0.00,,,0.04,111.0,meteohub,2013-06-23 10:38:00,
2013-06-23 06:43:00,75.9,75.9,30.07,East,96,0.0,0.0,100,0.00,,,0.04,93.0,meteohub,2013-06-23 10:43:00,
2013-06-23 06:48:00,76.3,76.3,30.07,East,96,0.0,0.0,100,0.00,,,0.04,135.0,meteohub,2013-06-23 10:48:00,
2013-06-23 06:53:00,76.3,76.3,30.07,East,96,0.0,0.0,100,0.00,,,0.04,172.0,meteohub,2013-06-23 10:53:00,
2013-06-23 06:58:00,76.3,76.3,30.07,East,95,0.0,0.0,100,0.00,,,0.04,160.0,meteohub,2013-06-23 10:58:00,
2013-06-23 07:03:00,76.5,76.5,30.07,East,96,0.0,0.0,100,0.00,,,0.04,169.0,meteohub,2013-06-23 11:03:00,
2013-06-23 07:08:00,76.8,76.8,30.07,East,96,0.0,0.0,100,0.00,,,0.04,114.0,meteohub,2013-06-23 11:08:00,
2013-06-23 07:13:00,76.6,76.6,30.07,East,96,0.0,0.0,100,0.00,,,0.04,157.0,meteohub,2013-06-23 11:13:00,
2013-06-23 07:18:00,76.6,76.6,30.07,East,96,0.0,0.0,100,0.00,,,0.04,91.0,meteohub,2013-06-23 11:18:00,
2013-06-23 07:23:00,76.8,76.8,30.07,East,96,0.0,0.0,100,0.00,,,0.04,106.0,meteohub,2013-06-23 11:23:00,
2013-06-23 07:28:00,77.0,77.0,30.07,East,96,0.0,0.0,100,0.00,,,0.04,106.0,meteohub,2013-06-23 11:28:00,
2013-06-23 07:34:00,77.0,77.0,30.07,East,96,0.0,0.0,100,0.00,,,0.04,111.0,meteohub,2013-06-23 11:34:00,
2013-06-23 07:39:00,77.0,77.0,30.07,East,97,0.0,0.0,100,0.00,,,0.04,109.0,meteohub,2013-06-23 11:39:00,
2013-06-23 07:44:00,77.2,77.2,30.07,East,95,0.0,0.0,100,0.00,,,0.04,139.0,meteohub,2013-06-23 11:44:00,
2013-06-23 07:49:00,77.4,77.4,30.07,East,96,0.0,0.0,100,0.00,,,0.04,171.0,meteohub,2013-06-23 11:49:00,
2013-06-23 07:54:00,77.7,77.7,30.07,East,95,0.0,0.0,100,0.00,,,0.04,234.0,meteohub,2013-06-23 11:54:00,
2013-06-23 07:59:00,77.9,77.9,30.08,East,96,0.0,0.0,100,0.00,,,0.04,399.0,meteohub,2013-06-23 11:59:00,
2013-06-23 08:04:00,78.3,78.3,30.08,East,96,0.0,0.0,100,0.00,,,0.04,334.0,meteohub,2013-06-23 12:04:00,
2013-06-23 08:09:00,78.3,78.3,30.08,East,96,0.0,0.0,100,0.00,,,0.04,162.0,meteohub,2013-06-23 12:09:00,
2013-06-23 08:14:00,78.6,78.6,30.07,East,96,0.0,0.0,100,0.00,,,0.04,144.0,meteohub,2013-06-23 12:14:00,
2013-06-23 08:19:00,78.6,78.6,30.07,East,96,0.0,0.0,100,0.00,,,0.04,134.0,meteohub,2013-06-23 12:19:00,
2013-06-23 08:24:00,78.8,78.4,30.07,East,95,0.0,0.0,99,0.00,,,0.04,176.0,meteohub,2013-06-23 12:24:00,
2013-06-23 08:29:00,79.2,78.8,30.07,East,96,0.0,0.0,99,0.00,,,0.04,498.0,meteohub,2013-06-23 12:29:00,
2013-06-23 08:34:00,79.9,79.3,30.07,East,96,0.0,0.0,98,0.00,,,0.04,605.0,meteohub,2013-06-23 12:34:00,
2013-06-23 08:39:00,80.1,79.2,30.07,East,96,0.0,0.0,97,0.00,,,0.04,605.0,meteohub,2013-06-23 12:39:00,
2013-06-23 08:44:00,80.2,78.6,30.07,East,97,0.0,0.0,95,0.00,,,0.04,294.0,meteohub,2013-06-23 12:44:00,
2013-06-23 08:49:00,80.8,78.8,30.07,SE,137,0.0,5.0,94,0.00,,,0.04,623.0,meteohub,2013-06-23 12:49:00,
2013-06-23 08:54:00,81.1,79.0,30.07,ESE,102,0.0,7.0,93,0.00,,,0.04,648.0,meteohub,2013-06-23 12:54:00,
2013-06-23 08:59:00,81.9,79.3,30.07,ENE,78,0.0,7.0,92,0.00,,,0.04,630.0,meteohub,2013-06-23 12:59:00,
2013-06-23 09:04:00,82.4,79.5,30.07,East,92,0.0,7.0,91,0.00,,,0.04,554.0,meteohub,2013-06-23 13:04:00,
2013-06-23 09:10:00,82.8,79.5,30.07,ESE,123,2.0,6.0,90,0.00,,,0.04,660.0,meteohub,2013-06-23 13:10:00,
2013-06-23 09:15:00,83.1,79.9,30.07,East,95,7.0,8.0,90,0.00,,,0.04,746.0,meteohub,2013-06-23 13:15:00,
2013-06-23 09:20:00,83.5,79.9,30.07,East,100,0.0,8.0,89,0.00,,,0.04,690.0,meteohub,2013-06-23 13:20:00,
2013-06-23 09:25:00,83.5,79.5,30.07,ESE,110,8.0,8.0,88,0.00,,,0.04,681.0,meteohub,2013-06-23 13:25:00,
2013-06-23 09:30:00,83.5,79.5,30.07,ESE,109,0.0,8.0,88,0.00,,,0.04,558.0,meteohub,2013-06-23 13:30:00,
2013-06-23 09:35:00,83.1,79.2,30.07,ESE,116,0.0,11.0,88,0.00,,,0.04,223.0,meteohub,2013-06-23 13:35:00,
2013-06-23 09:40:00,83.1,79.2,30.07,SE,143,0.0,11.0,88,0.00,,,0.04,232.0,meteohub,2013-06-23 13:40:00,
2013-06-23 09:45:00,83.5,79.5,30.07,ENE,71,5.0,8.0,88,0.00,,,0.04,246.0,meteohub,2013-06-23 13:45:00,
2013-06-23 09:50:00,82.9,79.3,30.07,NE,56,2.0,6.0,89,0.00,,,0.04,940.0,meteohub,2013-06-23 13:50:00,
2013-06-23 09:55:00,82.9,79.3,30.07,ENE,78,7.0,12.0,89,0.00,,,0.04,308.0,meteohub,2013-06-23 13:55:00,
2013-06-23 10:00:00,82.9,79.3,30.07,ENE,72,0.0,12.0,89,0.00,,,0.04,406.0,meteohub,2013-06-23 14:00:00,
2013-06-23 10:05:00,83.7,79.7,30.07,East,92,12.0,14.0,88,0.00,,,0.04,962.0,meteohub,2013-06-23 14:05:00,
2013-06-23 10:10:00,83.8,78.8,30.07,SE,138,6.0,14.0,85,0.00,,,0.04,183.0,meteohub,2013-06-23 14:10:00,
2013-06-23 10:15:00,83.5,78.4,30.07,ESE,102,0.0,12.0,85,0.00,,,0.04,204.0,meteohub,2013-06-23 14:15:00,
2013-06-23 10:20:00,83.8,79.2,30.07,SSE,152,7.0,12.0,86,0.00,,,0.04,327.0,meteohub,2013-06-23 14:20:00,
2013-06-23 10:26:00,83.7,79.0,30.07,South,189,0.0,11.0,86,0.00,,,0.04,183.0,meteohub,2013-06-23 14:26:00,
2013-06-23 10:31:00,83.1,79.2,30.07,SSW,199,0.0,8.0,88,0.00,,,0.04,333.0,meteohub,2013-06-23 14:31:00,
2013-06-23 10:36:00,82.9,79.3,30.07,South,189,0.0,7.0,89,0.00,,,0.04,394.0,meteohub,2013-06-23 14:36:00,
2013-06-23 10:41:00,83.1,79.5,30.07,ESE,114,6.0,6.0,89,0.00,,,0.04,301.0,meteohub,2013-06-23 14:41:00,
2013-06-23 10:46:00,83.1,78.8,30.07,East,86,4.0,17.0,87,0.00,,,0.04,234.0,meteohub,2013-06-23 14:46:00,
2013-06-23 10:51:00,83.8,79.2,30.07,East,80,2.0,17.0,86,0.00,,,0.04,252.0,meteohub,2013-06-23 14:51:00,
2013-06-23 10:56:00,83.8,79.5,30.07,ENE,73,10.0,17.0,87,0.00,,,0.04,274.0,meteohub,2013-06-23 14:56:00,
2013-06-23 11:01:00,83.7,79.3,30.07,ESE,119,8.0,17.0,87,0.00,,,0.04,274.0,meteohub,2013-06-23 15:01:00,
2013-06-23 11:06:00,83.5,78.8,30.07,ESE,121,7.0,16.0,86,0.00,,,0.04,371.0,meteohub,2013-06-23 15:06:00,
2013-06-23 11:11:00,84.0,79.7,30.07,ESE,117,5.0,19.0,87,0.00,,,0.04,996.0,meteohub,2013-06-23 15:11:00,
2013-06-23 11:16:00,84.7,79.7,30.07,SE,124,10.0,19.0,85,0.00,,,0.04,1038.0,meteohub,2013-06-23 15:16:00,
2013-06-23 11:21:00,85.3,79.5,30.07,ESE,107,3.0,19.0,83,0.00,,,0.04,1066.0,meteohub,2013-06-23 15:21:00,
2013-06-23 11:26:00,85.6,78.8,30.07,SE,126,2.0,15.0,80,0.00,,,0.04,1077.0,meteohub,2013-06-23 15:26:00,
2013-06-23 11:32:00,85.8,79.0,30.07,East,85,7.0,15.0,80,0.00,,,0.04,454.0,meteohub,2013-06-23 15:32:00,
2013-06-23 11:37:00,85.5,79.0,30.07,SSW,192,5.0,14.0,81,0.00,,,0.04,399.0,meteohub,2013-06-23 15:37:00,
2013-06-23 11:42:00,84.7,78.3,30.07,South,179,5.0,13.0,81,0.00,,,0.04,447.0,meteohub,2013-06-23 15:42:00,
2013-06-23 11:47:00,84.0,78.3,30.07,SSW,199,4.0,13.0,83,0.00,,,0.04,838.0,meteohub,2013-06-23 15:47:00,
2013-06-23 11:52:00,83.8,77.7,30.07,South,189,2.0,13.0,82,0.00,,,0.04,493.0,meteohub,2013-06-23 15:52:00,
2013-06-23 11:57:00,83.8,77.7,30.07,South,181,2.0,10.0,82,0.00,,,0.04,487.0,meteohub,2013-06-23 15:57:00,
2013-06-23 12:02:00,84.0,78.3,30.07,South,185,5.0,8.0,83,0.00,,,0.04,816.0,meteohub,2013-06-23 16:02:00,
2013-06-23 12:07:00,84.7,78.6,30.07,SSW,205,5.0,8.0,82,0.00,,,0.04,512.0,meteohub,2013-06-23 16:07:00,
2013-06-23 12:12:00,84.4,78.3,30.07,SSW,206,2.0,14.0,82,0.00,,,0.04,230.0,meteohub,2013-06-23 16:12:00,
2013-06-23 12:18:00,83.7,77.9,30.07,South,185,1.0,14.0,83,0.00,,,0.04,213.0,meteohub,2013-06-23 16:18:00,
2013-06-23 12:23:00,82.6,77.2,30.07,South,188,3.0,14.0,84,0.00,,,0.04,280.0,meteohub,2013-06-23 16:23:00,
2013-06-23 12:28:00,82.0,77.0,30.07,SSE,160,3.0,12.0,85,0.00,,,0.04,118.0,meteohub,2013-06-23 16:28:00,
2013-06-23 12:33:00,81.1,76.8,30.07,South,175,0.0,11.0,87,0.01,,,0.05,113.0,meteohub,2013-06-23 16:33:00,
2013-06-23 12:38:00,79.9,77.0,30.07,SSW,193,1.0,9.0,91,0.11,,,0.15,123.0,meteohub,2013-06-23 16:38:00,
2013-06-23 12:43:00,79.0,76.8,30.06,SSW,196,1.0,8.0,93,0.14,,,0.16,157.0,meteohub,2013-06-23 16:43:00,
2013-06-23 12:48:00,78.6,76.8,30.06,SSW,193,0.0,5.0,94,0.14,,,0.18,179.0,meteohub,2013-06-23 16:48:00,
2013-06-23 12:53:00,78.3,76.6,30.06,SSW,192,0.0,5.0,95,0.14,,,0.18,273.0,meteohub,2013-06-23 16:53:00,
2013-06-23 12:57:00,78.4,77.2,30.06,South,186,1.0,3.0,96,0.14,,,0.18,181.0,meteohub,2013-06-23 16:57:00,
2013-06-23 12:58:00,78.4,77.2,30.06,SSW,193,2.0,3.0,96,0.14,,,0.18,172.0,meteohub,2013-06-23 16:58:00,
2013-06-23 13:03:00,78.4,77.2,30.06,SSW,195,1.0,5.0,96,0.14,,,0.18,333.0,meteohub,2013-06-23 17:03:00,
2013-06-23 13:08:00,78.8,77.9,30.06,SSW,208,0.0,7.0,97,0.14,,,0.18,359.0,meteohub,2013-06-23 17:08:00,
2013-06-23 13:14:00,80.1,78.8,30.05,SSW,203,0.0,7.0,96,0.14,,,0.18,294.0,meteohub,2013-06-23 17:14:00,
2013-06-23 13:18:00,80.1,78.8,30.05,SSW,203,0.0,6.0,96,0.14,,,0.18,202.0,meteohub,2013-06-23 17:18:00,
2013-06-23 13:23:00,80.2,78.6,30.05,NNE,27,6.0,6.0,95,0.14,,,0.18,88.0,meteohub,2013-06-23 17:23:00,
2013-06-23 13:28:00,79.5,78.3,30.05,NNE,20,0.0,7.0,96,0.17,,,0.21,86.0,meteohub,2013-06-23 17:28:00,
2013-06-23 13:33:00,79.5,78.3,30.05,NNE,20,0.0,8.0,96,0.14,,,0.24,65.0,meteohub,2013-06-23 17:33:00,
2013-06-23 13:39:00,79.3,78.1,30.05,NNE,20,0.0,8.0,96,0.08,,,0.24,74.0,meteohub,2013-06-23 17:39:00,
2013-06-23 13:44:00,79.2,78.3,30.05,South,172,4.0,6.0,97,0.06,,,0.24,116.0,meteohub,2013-06-23 17:44:00,
2013-06-23 13:49:00,78.6,77.4,30.05,SSW,195,10.0,10.0,96,0.06,,,0.24,216.0,meteohub,2013-06-23 17:49:00,
2013-06-23 13:54:00,78.6,77.7,30.05,SSE,162,4.0,12.0,97,0.06,,,0.24,308.0,meteohub,2013-06-23 17:54:00,
2013-06-23 13:59:00,79.0,78.1,30.05,South,172,3.0,12.0,97,0.06,,,0.24,628.0,meteohub,2013-06-23 17:59:00,
2013-06-23 14:04:00,79.0,78.1,30.05,SSE,157,3.0,12.0,97,0.06,,,0.24,456.0,meteohub,2013-06-23 18:04:00,
2013-06-23 14:09:00,78.8,77.5,30.05,South,171,6.0,11.0,96,0.06,,,0.24,208.0,meteohub,2013-06-23 18:09:00,
2013-06-23 14:14:00,78.6,77.4,30.05,SSW,192,10.0,13.0,96,0.06,,,0.24,326.0,meteohub,2013-06-23 18:14:00,
2013-06-23 14:19:00,78.8,77.9,30.05,South,185,2.0,13.0,97,0.06,,,0.24,410.0,meteohub,2013-06-23 18:19:00,
2013-06-23 14:24:00,78.8,77.9,30.05,South,189,6.0,13.0,97,0.05,,,0.24,403.0,meteohub,2013-06-23 18:24:00,
2013-06-23 14:29:00,78.8,77.5,30.04,South,169,3.0,11.0,96,0.00,,,0.24,421.0,meteohub,2013-06-23 18:29:00,
2013-06-23 14:34:00,79.2,78.3,30.04,SE,136,4.0,12.0,97,0.00,,,0.24,181.0,meteohub,2013-06-23 18:34:00,
2013-06-23 14:39:00,79.0,77.7,30.04,South,174,2.0,14.0,96,0.01,,,0.25,185.0,meteohub,2013-06-23 18:39:00,
2013-06-23 14:44:00,79.0,78.1,30.04,SE,144,3.0,14.0,97,0.01,,,0.25,199.0,meteohub,2013-06-23 18:44:00,
2013-06-23 14:49:00,78.6,77.7,30.04,SE,137,3.0,14.0,97,0.01,,,0.25,208.0,meteohub,2013-06-23 18:49:00,
2013-06-23 14:55:00,78.6,78.1,30.04,SE,133,1.0,13.0,98,0.02,,,0.26,185.0,meteohub,2013-06-23 18:55:00,
2013-06-23 15:00:00,78.1,77.5,30.04,SE,128,0.0,7.0,98,0.02,,,0.26,188.0,meteohub,2013-06-23 19:00:00,
2013-06-23 15:05:00,77.9,77.4,30.04,SE,128,0.0,7.0,98,0.03,,,0.27,199.0,meteohub,2013-06-23 19:05:00,
2013-06-23 15:10:00,78.1,77.5,30.04,SE,128,0.0,6.0,98,0.03,,,0.27,227.0,meteohub,2013-06-23 19:10:00,
2013-06-23 15:15:00,78.4,77.9,30.03,SE,128,0.0,3.0,98,0.03,,,0.27,294.0,meteohub,2013-06-23 19:15:00,
2013-06-23 15:20:00,78.6,78.1,30.03,SE,128,0.0,0.0,98,0.03,,,0.27,299.0,meteohub,2013-06-23 19:20:00,
2013-06-23 15:25:00,79.2,78.6,30.03,SE,128,0.0,0.0,98,0.03,,,0.27,287.0,meteohub,2013-06-23 19:25:00,
2013-06-23 15:30:00,79.5,79.0,30.03,SE,130,0.0,0.0,98,0.03,,,0.27,243.0,meteohub,2013-06-23 19:30:00,
2013-06-23 15:35:00,79.5,78.6,30.03,NE,40,0.0,0.0,97,0.03,,,0.27,216.0,meteohub,2013-06-23 19:35:00,
2013-06-23 15:40:00,79.5,78.6,30.03,NNE,31,2.0,0.0,97,0.02,,,0.27,245.0,meteohub,2013-06-23 19:40:00,
2013-06-23 15:45:00,79.5,78.6,30.03,NNE,18,2.0,3.0,97,0.02,,,0.27,188.0,meteohub,2013-06-23 19:45:00,
2013-06-23 15:50:00,79.3,78.1,30.03,NNE,14,1.0,6.0,96,0.01,,,0.27,155.0,meteohub,2013-06-23 19:50:00,
2013-06-23 15:55:00,79.2,78.3,30.03,NE,42,2.0,6.0,97,0.01,,,0.27,139.0,meteohub,2013-06-23 19:55:00,
2013-06-23 16:00:00,79.0,78.1,30.03,NE,38,1.0,6.0,97,0.01,,,0.27,162.0,meteohub,2013-06-23 20:00:00,
2013-06-23 16:05:00,79.0,78.1,30.03,NE,38,0.0,6.0,97,0.00,,,0.27,164.0,meteohub,2013-06-23 20:05:00,
2013-06-23 16:10:00,79.2,78.3,30.03,NE,40,0.0,6.0,97,0.00,,,0.27,223.0,meteohub,2013-06-23 20:10:00,
2013-06-23 16:15:00,79.2,78.3,30.02,NE,38,0.0,3.0,97,0.00,,,0.27,201.0,meteohub,2013-06-23 20:15:00,
2013-06-23 16:20:00,79.3,78.1,30.02,NE,38,0.0,0.0,96,0.00,,,0.27,174.0,meteohub,2013-06-23 20:20:00,
2013-06-23 16:25:00,79.9,78.6,30.02,ENE,65,0.0,5.0,96,0.00,,,0.27,201.0,meteohub,2013-06-23 20:25:00,
2013-06-23 16:31:00,79.9,78.6,30.02,ENE,69,0.0,5.0,96,0.00,,,0.27,165.0,meteohub,2013-06-23 20:31:00,
2013-06-23 16:35:00,79.9,78.3,30.02,ENE,65,0.0,5.0,95,0.00,,,0.27,167.0,meteohub,2013-06-23 20:35:00,
2013-06-23 16:41:00,79.9,78.3,30.02,ENE,66,0.0,3.0,95,0.00,,,0.27,172.0,meteohub,2013-06-23 20:41:00,
2013-06-23 16:46:00,80.4,78.8,30.02,ENE,66,0.0,3.0,95,0.00,,,0.27,179.0,meteohub,2013-06-23 20:46:00,
2013-06-23 16:51:00,80.4,78.6,30.02,East,92,2.0,4.0,94,0.00,,,0.27,257.0,meteohub,2013-06-23 20:51:00,
2013-06-23 16:56:00,80.4,78.3,30.02,NE,48,3.0,5.0,93,0.00,,,0.27,246.0,meteohub,2013-06-23 20:56:00,
2013-06-23 17:01:00,81.0,78.4,30.02,ENE,66,0.0,6.0,92,0.00,,,0.27,382.0,meteohub,2013-06-23 21:01:00,
2013-06-23 17:06:00,81.7,79.2,30.02,ENE,78,2.0,6.0,92,0.00,,,0.27,428.0,meteohub,2013-06-23 21:06:00,
2013-06-23 17:11:00,82.4,79.2,30.02,ESE,109,6.0,7.0,90,0.00,,,0.27,470.0,meteohub,2013-06-23 21:11:00,
2013-06-23 17:16:00,82.8,79.2,30.02,East,92,3.0,7.0,89,0.00,,,0.27,447.0,meteohub,2013-06-23 21:16:00,
2013-06-23 17:21:00,82.9,79.3,30.02,ENE,69,2.0,7.0,89,0.00,,,0.27,348.0,meteohub,2013-06-23 21:21:00,
2013-06-23 17:26:00,82.9,79.0,30.02,East,89,3.0,7.0,88,0.00,,,0.27,366.0,meteohub,2013-06-23 21:26:00,
2013-06-23 17:31:00,83.1,79.5,30.03,ENE,69,3.0,7.0,89,0.00,,,0.27,208.0,meteohub,2013-06-23 21:31:00,
2013-06-23 17:36:00,82.9,79.3,30.03,ENE,71,4.0,8.0,89,0.00,,,0.27,195.0,meteohub,2013-06-23 21:36:00,
2013-06-23 17:41:00,82.8,79.2,30.03,ENE,75,4.0,8.0,89,0.00,,,0.27,318.0,meteohub,2013-06-23 21:41:00,
2013-06-23 17:46:00,82.9,79.3,30.02,ESE,110,4.0,8.0,89,0.00,,,0.27,220.0,meteohub,2013-06-23 21:46:00,
2013-06-23 17:51:00,82.9,79.7,30.02,ENE,66,5.0,8.0,90,0.00,,,0.27,114.0,meteohub,2013-06-23 21:51:00,
2013-06-23 17:56:00,82.8,79.5,30.02,ENE,75,5.0,8.0,90,0.00,,,0.27,97.0,meteohub,2013-06-23 21:56:00,
2013-06-23 18:01:00,82.2,78.6,30.03,ENE,72,3.0,8.0,89,0.00,,,0.27,104.0,meteohub,2013-06-23 22:01:00,
2013-06-23 18:06:00,82.0,78.4,30.03,East,80,3.0,8.0,89,0.00,,,0.27,116.0,meteohub,2013-06-23 22:06:00,
2013-06-23 18:11:00,82.0,78.1,30.03,East,80,3.0,8.0,88,0.00,,,0.27,97.0,meteohub,2013-06-23 22:11:00,
2013-06-23 18:16:00,81.9,77.5,30.04,East,96,6.0,8.0,87,0.00,,,0.27,104.0,meteohub,2013-06-23 22:16:00,
2013-06-23 18:22:00,82.0,77.7,30.04,East,82,0.0,8.0,87,0.00,,,0.27,121.0,meteohub,2013-06-23 22:22:00,
2013-06-23 18:27:00,82.0,77.7,30.04,ENE,71,2.0,8.0,87,0.00,,,0.27,81.0,meteohub,2013-06-23 22:27:00,
2013-06-23 18:32:00,82.0,77.7,30.04,East,80,3.0,7.0,87,0.00,,,0.27,58.0,meteohub,2013-06-23 22:32:00,
2013-06-23 18:37:00,81.9,77.9,30.04,ENE,75,0.0,7.0,88,0.00,,,0.27,42.0,meteohub,2013-06-23 22:37:00,
2013-06-23 18:42:00,81.7,77.7,30.04,East,90,4.0,6.0,88,0.00,,,0.27,32.0,meteohub,2013-06-23 22:42:00,
2013-06-23 18:47:00,81.3,77.7,30.04,ENE,64,2.0,5.0,89,0.00,,,0.27,25.0,meteohub,2013-06-23 22:47:00,
2013-06-23 18:52:00,81.1,77.5,30.04,East,88,3.0,7.0,89,0.00,,,0.27,11.0,meteohub,2013-06-23 22:52:00,
2013-06-23 18:57:00,81.1,77.5,30.04,ENE,78,5.0,7.0,89,0.00,,,0.27,5.0,meteohub,2013-06-23 22:57:00,
2013-06-23 19:02:00,81.0,77.7,30.04,East,89,2.0,7.0,90,0.00,,,0.27,0.0,meteohub,2013-06-23 23:02:00,
2013-06-23 19:07:00,80.8,77.5,30.04,ENE,69,0.0,8.0,90,0.00,,,0.27,0.0,meteohub,2013-06-23 23:07:00,
2013-06-23 19:12:00,80.8,77.9,30.04,East,80,0.0,8.0,91,0.00,,,0.27,0.0,meteohub,2013-06-23 23:12:00,
2013-06-23 19:17:00,80.8,77.9,30.05,ENE,76,0.0,8.0,91,0.00,,,0.27,0.0,meteohub,2013-06-23 23:17:00,
2013-06-23 19:22:00,80.4,77.9,30.05,ESE,102,5.0,8.0,92,0.00,,,0.27,0.0,meteohub,2013-06-23 23:22:00,
2013-06-23 19:27:00,80.2,77.7,30.05,ESE,104,7.0,8.0,92,0.00,,,0.27,0.0,meteohub,2013-06-23 23:27:00,
2013-06-23 19:32:00,80.2,77.7,30.05,ENE,73,0.0,12.0,92,0.00,,,0.27,0.0,meteohub,2013-06-23 23:32:00,
2013-06-23 19:37:00,80.1,77.5,30.05,East,82,0.0,12.0,92,0.00,,,0.27,0.0,meteohub,2013-06-23 23:37:00,
2013-06-23 19:42:00,80.1,77.9,30.05,East,80,0.0,12.0,93,0.00,,,0.27,0.0,meteohub,2013-06-23 23:42:00,
2013-06-23 19:47:00,80.1,77.9,30.05,ENE,72,0.0,6.0,93,0.00,,,0.27,0.0,meteohub,2013-06-23 23:47:00,
2013-06-23 19:52:00,79.9,77.7,30.05,NE,54,0.0,7.0,93,0.00,,,0.27,0.0,meteohub,2013-06-23 23:52:00,
2013-06-23 19:58:00,79.9,77.7,30.06,East,82,0.0,7.0,93,0.00,,,0.27,0.0,meteohub,2013-06-23 23:58:00,
2013-06-23 20:03:00,79.5,77.7,30.06,ENE,75,0.0,7.0,94,0.00,,,0.27,0.0,meteohub,2013-06-24 00:03:00,
2013-06-23 20:08:00,79.5,77.7,30.06,ENE,75,0.0,6.0,94,0.00,,,0.27,0.0,meteohub,2013-06-24 00:08:00,
2013-06-23 20:13:00,79.5,77.7,30.07,East,83,4.0,6.0,94,0.00,,,0.27,0.0,meteohub,2013-06-24 00:13:00,
2013-06-23 20:18:00,79.5,77.7,30.07,SE,136,1.0,4.0,94,0.00,,,0.27,0.0,meteohub,2013-06-24 00:18:00,
2013-06-23 20:23:00,78.8,76.6,30.07,East,82,8.0,8.0,93,0.00,,,0.27,0.0,meteohub,2013-06-24 00:23:00,
2013-06-23 20:28:00,78.3,76.5,30.07,ESE,120,0.0,10.0,94,0.01,,,0.28,0.0,meteohub,2013-06-24 00:28:00,
2013-06-23 20:33:00,77.5,76.3,30.07,ESE,119,0.0,12.0,96,0.14,,,0.41,0.0,meteohub,2013-06-24 00:33:00,
2013-06-23 20:38:00,77.5,76.6,30.07,SE,144,0.0,12.0,97,0.20,,,0.47,0.0,meteohub,2013-06-24 00:38:00,
2013-06-23 20:43:00,77.4,76.8,30.07,SE,143,0.0,11.0,98,0.21,,,0.48,0.0,meteohub,2013-06-24 00:43:00,
2013-06-23 20:48:00,77.2,76.8,30.07,SE,143,0.0,7.0,99,0.22,,,0.49,0.0,meteohub,2013-06-24 00:48:00,
2013-06-23 20:53:00,77.2,77.2,30.07,SE,143,0.0,7.0,100,0.26,,,0.53,0.0,meteohub,2013-06-24 00:53:00,
2013-06-23 20:58:00,77.2,77.2,30.08,SE,141,0.0,0.0,100,0.34,,,0.61,0.0,meteohub,2013-06-24 00:58:00,
2013-06-23 21:03:00,77.4,77.4,30.08,SE,143,0.0,0.0,100,0.34,,,0.61,0.0,meteohub,2013-06-24 01:03:00,
2013-06-23 21:08:00,77.4,77.4,30.08,East,97,7.0,0.0,100,0.35,,,0.62,0.0,meteohub,2013-06-24 01:08:00,
2013-06-23 21:13:00,77.5,77.5,30.08,ESE,117,0.0,8.0,100,0.38,,,0.65,0.0,meteohub,2013-06-24 01:13:00,
2013-06-23 21:18:00,77.7,77.7,30.08,ESE,117,0.0,10.0,100,0.40,,,0.67,0.0,meteohub,2013-06-24 01:18:00,
2013-06-23 21:23:00,77.7,77.7,30.08,ESE,117,0.0,10.0,100,0.40,,,0.67,0.0,meteohub,2013-06-24 01:23:00,
2013-06-23 21:29:00,77.7,77.7,30.08,ESE,117,0.0,0.0,100,0.37,,,0.67,0.0,meteohub,2013-06-24 01:29:00,
2013-06-23 21:34:00,77.7,77.7,30.08,ESE,116,0.0,0.0,100,0.22,,,0.67,0.0,meteohub,2013-06-24 01:34:00,
2013-06-23 21:39:00,77.7,77.7,30.08,ESE,117,0.0,0.0,100,0.20,,,0.67,0.0,meteohub,2013-06-24 01:39:00,
2013-06-23 21:44:00,77.9,77.9,30.09,ESE,112,0.0,0.0,100,0.18,,,0.67,0.0,meteohub,2013-06-24 01:44:00,
2013-06-23 21:49:00,77.9,77.9,30.09,ESE,114,0.0,0.0,100,0.16,,,0.67,0.0,meteohub,2013-06-24 01:49:00,
2013-06-23 21:54:00,77.7,77.7,30.09,ESE,117,0.0,0.0,100,0.08,,,0.67,0.0,meteohub,2013-06-24 01:54:00,
2013-06-23 21:59:00,77.7,77.7,30.09,ESE,117,0.0,0.0,100,0.06,,,0.67,0.0,meteohub,2013-06-24 01:59:00,
2013-06-23 22:04:00,77.7,77.7,30.09,East,96,0.0,0.0,100,0.05,,,0.67,0.0,meteohub,2013-06-24 02:04:00,
2013-06-23 22:09:00,77.7,77.7,30.09,East,99,0.0,3.0,100,0.03,,,0.67,0.0,meteohub,2013-06-24 02:09:00,
2013-06-23 22:14:00,77.7,77.7,30.09,East,100,0.0,3.0,100,0.01,,,0.67,0.0,meteohub,2013-06-24 02:14:00,
2013-06-23 22:19:00,77.7,77.7,30.09,ESE,112,0.0,3.0,100,0.00,,,0.67,0.0,meteohub,2013-06-24 02:19:00,
2013-06-23 22:24:00,77.7,77.7,30.09,ESE,112,0.0,6.0,100,0.00,,,0.67,0.0,meteohub,2013-06-24 02:24:00,
2013-06-23 22:29:00,77.7,77.7,30.09,ESE,113,0.0,6.0,100,0.00,,,0.67,0.0,meteohub,2013-06-24 02:29:00,
2013-06-23 22:34:00,77.7,77.7,30.09,ESE,110,0.0,6.0,100,0.00,,,0.67,0.0,meteohub,2013-06-24 02:34:00,
2013-06-23 22:39:00,77.7,77.7,30.09,ESE,110,0.0,1.0,100,0.00,,,0.67,0.0,meteohub,2013-06-24 02:39:00,
2013-06-23 22:44:00,77.7,77.7,30.10,ESE,110,0.0,1.0,100,0.00,,,0.67,0.0,meteohub,2013-06-24 02:44:00,
2013-06-23 22:49:00,77.5,77.5,30.10,ESE,110,0.0,1.0,100,0.00,,,0.67,0.0,meteohub,2013-06-24 02:49:00,
2013-06-23 22:55:00,77.7,77.7,30.10,ESE,106,0.0,0.0,100,0.00,,,0.67,0.0,meteohub,2013-06-24 02:55:00,
2013-06-23 23:00:00,77.5,77.5,30.10,ESE,112,0.0,0.0,100,0.00,,,0.67,0.0,meteohub,2013-06-24 03:00:00,
2013-06-23 23:05:00,77.5,77.5,30.10,ESE,112,0.0,0.0,100,0.00,,,0.67,0.0,meteohub,2013-06-24 03:05:00,
2013-06-23 23:10:00,77.5,77.5,30.10,ESE,112,0.0,2.0,100,0.00,,,0.67,0.0,meteohub,2013-06-24 03:10:00,
2013-06-23 23:15:00,77.4,77.4,30.09,ESE,112,0.0,2.0,100,0.00,,,0.67,0.0,meteohub,2013-06-24 03:15:00,
2013-06-23 23:20:00,77.4,77.4,30.09,ESE,112,0.0,0.0,100,0.00,,,0.67,0.0,meteohub,2013-06-24 03:20:00,
2013-06-23 23:25:00,77.4,77.4,30.09,ESE,112,0.0,0.0,100,0.00,,,0.67,0.0,meteohub,2013-06-24 03:25:00,
2013-06-23 23:30:00,77.4,77.4,30.09,ESE,110,0.0,0.0,100,0.00,,,0.67,0.0,meteohub,2013-06-24 03:30:00,
2013-06-23 23:35:00,77.4,77.4,30.09,ESE,110,0.0,0.0,100,0.00,,,0.67,0.0,meteohub,2013-06-24 03:35:00,
2013-06-23 23:40:00,77.4,77.4,30.09,ESE,110,0.0,0.0,100,0.00,,,0.67,0.0,meteohub,2013-06-24 03:40:00,
2013-06-23 23:45:00,77.4,77.4,30.09,ESE,110,0.0,0.0,100,0.00,,,0.67,0.0,meteohub,2013-06-24 03:45:00,
2013-06-23 23:50:00,77.2,77.2,30.09,ESE,112,0.0,0.0,100,0.00,,,0.67,0.0,meteohub,2013-06-24 03:50:00,
2013-06-23 23:55:00,77.2,77.2,30.09,ESE,110,0.0,0.0,100,0.00,,,0.67,0.0,meteohub,2013-06-24 03:55:00,